sensor_id;sensor_type;location;lat;lon;timestamp;pressure;altitude;pressure_sealevel;temperature;humidity
75938;BME280;64615;32.062;34.834;2023-05-10T00:18:00;100706.91;;;24.11;56.65
75938;BME280;64615;32.062;34.834;2023-05-10T00:20:51;100708.00;;;24.10;56.77
75938;BME280;64615;32.062;34.834;2023-05-10T00:23:42;100698.47;;;24.07;56.86
75938;BME280;64615;32.062;34.834;2023-05-10T00:26:34;100708.53;;;24.06;56.74
75938;BME280;64615;32.062;34.834;2023-05-10T00:29:24;100699.81;;;24.04;56.82
75938;BME280;64615;32.062;34.834;2023-05-10T00:32:15;100707.97;;;24.04;56.78
75938;BME280;64615;32.062;34.834;2023-05-10T00:35:07;100699.00;;;24.04;56.52
75938;BME280;64615;32.062;34.834;2023-05-10T00:37:57;100690.31;;;24.02;56.65
75938;BME280;64615;32.062;34.834;2023-05-10T00:40:48;100691.66;;;23.99;56.29
75938;BME280;64615;32.062;34.834;2023-05-10T00:43:40;100686.22;;;23.99;56.58
75938;BME280;64615;32.062;34.834;2023-05-10T00:46:30;100690.00;;;23.98;56.34
75938;BME280;64615;32.062;34.834;2023-05-10T00:49:21;100690.31;;;23.97;56.60
75938;BME280;64615;32.062;34.834;2023-05-10T00:52:13;100694.91;;;23.96;56.60
75938;BME280;64615;32.062;34.834;2023-05-10T00:55:04;100689.47;;;23.96;56.68
75938;BME280;64615;32.062;34.834;2023-05-10T00:57:56;100688.38;;;23.97;56.37
75938;BME280;64615;32.062;34.834;2023-05-10T01:19:38;100673.44;;;24.10;56.07
75938;BME280;64615;32.062;34.834;2023-05-10T01:30:08;100669.09;;;24.09;55.79
75938;BME280;64615;32.062;34.834;2023-05-10T01:35:41;100662.84;;;24.08;56.11
75938;BME280;64615;32.062;34.834;2023-05-10T01:43:35;100650.88;;;24.04;56.10
75938;BME280;64615;32.062;34.834;2023-05-10T01:46:07;100654.66;;;24.03;55.98
75938;BME280;64615;32.062;34.834;2023-05-10T01:48:45;100645.16;;;24.01;56.22
75938;BME280;64615;32.062;34.834;2023-05-10T01:51:16;100653.59;;;23.99;55.90
75938;BME280;64615;32.062;34.834;2023-05-10T01:53:46;100650.31;;;23.97;55.94
75938;BME280;64615;32.062;34.834;2023-05-10T01:56:14;100662.28;;;23.96;55.91
75938;BME280;64615;32.062;34.834;2023-05-10T01:58:43;100659.00;;;23.94;56.00
75938;BME280;64615;32.062;34.834;2023-05-10T02:01:12;100655.47;;;23.94;56.05
75938;BME280;64615;32.062;34.834;2023-05-10T02:03:40;100656.28;;;23.94;56.19
75938;BME280;64615;32.062;34.834;2023-05-10T02:06:09;100659.28;;;23.93;56.12
75938;BME280;64615;32.062;34.834;2023-05-10T02:08:36;100657.63;;;23.92;56.13
75938;BME280;64615;32.062;34.834;2023-05-10T02:11:03;100662.28;;;23.91;55.95
75938;BME280;64615;32.062;34.834;2023-05-10T02:13:31;100653.56;;;23.89;55.94
75938;BME280;64615;32.062;34.834;2023-05-10T02:15:59;100655.47;;;23.89;56.19
75938;BME280;64615;32.062;34.834;2023-05-10T02:18:26;100656.28;;;23.89;56.04
75938;BME280;64615;32.062;34.834;2023-05-10T18:39:53;100496.28;;;24.72;56.33
75938;BME280;64615;32.062;34.834;2023-05-10T18:42:18;100495.47;;;24.72;56.23
75938;BME280;64615;32.062;34.834;2023-05-10T18:44:44;100495.47;;;24.72;56.51
75938;BME280;64615;32.062;34.834;2023-05-10T18:47:10;100497.38;;;24.71;56.31
75938;BME280;64615;32.062;34.834;2023-05-10T18:49:36;100491.94;;;24.71;56.35
75938;BME280;64615;32.062;34.834;2023-05-10T18:52:01;100485.66;;;24.71;56.52
75938;BME280;64615;32.062;34.834;2023-05-10T18:54:27;100482.41;;;24.74;56.11
75938;BME280;64615;32.062;34.834;2023-05-10T18:56:54;100487.28;;;24.77;56.45
75938;BME280;64615;32.062;34.834;2023-05-10T18:59:21;100492.47;;;24.78;56.12
75938;BME280;64615;32.062;34.834;2023-05-10T19:01:47;100490.00;;;24.82;56.40
75938;BME280;64615;32.062;34.834;2023-05-10T19:04:13;100497.88;;;24.83;55.93
75938;BME280;64615;32.062;34.834;2023-05-10T19:06:38;100498.72;;;24.79;56.28
75938;BME280;64615;32.062;34.834;2023-05-10T19:09:05;100507.16;;;24.77;56.39
75938;BME280;64615;32.062;34.834;2023-05-10T19:11:31;100515.59;;;24.76;56.59
75938;BME280;64615;32.062;34.834;2023-05-10T19:13:59;100515.59;;;24.76;55.96
75938;BME280;64615;32.062;34.834;2023-05-10T19:16:25;100525.41;;;24.77;56.21
75938;BME280;64615;32.062;34.834;2023-05-10T19:18:52;100523.75;;;24.76;56.42
75938;BME280;64615;32.062;34.834;2023-05-10T19:21:18;100530.03;;;24.76;56.41
75938;BME280;64615;32.062;34.834;2023-05-10T19:23:44;100531.16;;;24.75;56.46
75938;BME280;64615;32.062;34.834;2023-05-10T19:26:10;100527.88;;;24.73;56.18
75938;BME280;64615;32.062;34.834;2023-05-10T19:28:36;100532.22;;;24.74;56.11
75938;BME280;64615;32.062;34.834;2023-05-10T19:31:01;100523.50;;;24.72;56.26
75938;BME280;64615;32.062;34.834;2023-05-10T19:33:28;100519.97;;;24.72;56.52
75938;BME280;64615;32.062;34.834;2023-05-10T19:35:54;100527.31;;;24.76;56.57
75938;BME280;64615;32.062;34.834;2023-05-10T19:38:20;100533.56;;;24.77;56.00
75938;BME280;64615;32.062;34.834;2023-05-10T20:17:23;100504.22;;;24.69;56.76
75938;BME280;64615;32.062;34.834;2023-05-10T20:19:48;100491.94;;;24.66;56.73
75938;BME280;64615;32.062;34.834;2023-05-10T20:22:14;100504.47;;;24.67;56.51
75938;BME280;64615;32.062;34.834;2023-05-10T20:24:40;100488.16;;;24.67;56.76
75938;BME280;64615;32.062;34.834;2023-05-10T20:27:05;100485.41;;;24.67;56.75
75938;BME280;64615;32.062;34.834;2023-05-10T20:29:31;100479.97;;;24.67;56.35
75938;BME280;64615;32.062;34.834;2023-05-10T20:31:57;100488.16;;;24.67;56.44
75938;BME280;64615;32.062;34.834;2023-05-10T20:34:23;100494.69;;;24.66;56.48
75938;BME280;64615;32.062;34.834;2023-05-10T20:36:49;100488.97;;;24.68;56.66
75938;BME280;64615;32.062;34.834;2023-05-10T20:39:14;100487.59;;;24.65;56.39
75938;BME280;64615;32.062;34.834;2023-05-10T20:41:40;100493.03;;;24.65;56.33
75938;BME280;64615;32.062;34.834;2023-05-10T20:44:06;100487.06;;;24.68;56.49
75938;BME280;64615;32.062;34.834;2023-05-10T20:46:32;100477.81;;;24.69;56.34
75938;BME280;64615;32.062;34.834;2023-05-10T20:48:57;100475.09;;;24.64;56.54
75938;BME280;64615;32.062;34.834;2023-05-10T20:51:23;100478.34;;;24.66;56.77
75938;BME280;64615;32.062;34.834;2023-05-10T20:53:49;100478.06;;;24.68;56.78
75938;BME280;64615;32.062;34.834;2023-05-10T20:56:15;100466.63;;;24.66;56.80
75938;BME280;64615;32.062;34.834;2023-05-10T20:58:40;100463.41;;;24.64;56.61
75938;BME280;64615;32.062;34.834;2023-05-10T21:01:06;100459.84;;;24.63;56.93
75938;BME280;64615;32.062;34.834;2023-05-10T21:03:32;100469.09;;;24.67;56.44
75938;BME280;64615;32.062;34.834;2023-05-10T21:05:57;100453.31;;;24.69;56.74
75938;BME280;64615;32.062;34.834;2023-05-10T21:08:23;100452.22;;;24.70;56.42
75938;BME280;64615;32.062;34.834;2023-05-10T21:10:48;100450.59;;;24.69;56.85
75938;BME280;64615;32.062;34.834;2023-05-10T21:13:15;100458.19;;;24.67;56.61
75938;BME280;64615;32.062;34.834;2023-05-10T21:15:40;100463.09;;;24.65;56.66
